createdAt,value
2023-05-04T00:00:08.257Z,98033.41
2023-05-04T00:02:35.042Z,98042.72
2023-05-04T00:05:01.790Z,98040.19
2023-05-04T00:07:28.366Z,98039.31
2023-05-04T00:09:54.914Z,98039.31
2023-05-04T00:12:21.448Z,98034.22
2023-05-04T00:14:47.964Z,98041.06
2023-05-04T00:17:14.565Z,98037.63
2023-05-04T00:19:42.343Z,98035.06
2023-05-04T00:22:09.168Z,98037.63
2023-05-04T00:24:35.991Z,98042.72
2023-05-04T00:27:02.490Z,98047.84
2023-05-04T00:29:29.664Z,98035.06
2023-05-04T00:31:56.649Z,98034.22
2023-05-04T00:34:23.662Z,98038.50
2023-05-04T00:36:50.230Z,98029.97
2023-05-04T00:39:16.795Z,98031.72
2023-05-04T00:41:44.511Z,98029.19
2023-05-04T00:44:11.237Z,98025.75
2023-05-04T00:46:37.953Z,98030.84
2023-05-04T00:49:04.538Z,98026.63
2023-05-04T00:51:31.213Z,98016.41
2023-05-04T00:53:58.110Z,98014.63
2023-05-04T00:56:24.903Z,98012.97
2023-05-04T00:58:54.695Z,98018.97
2023-05-04T01:01:22.300Z,98012.16
2023-05-04T01:03:50.131Z,98012.03
2023-05-04T01:06:23.271Z,98016.41
2023-05-04T01:09:01.588Z,98023.19
2023-05-04T01:11:37.189Z,98018.06
2023-05-04T01:14:03.729Z,98020.63
2023-05-04T01:16:30.266Z,98021.50
2023-05-04T01:18:56.871Z,98015.53
2023-05-04T01:21:23.415Z,98022.31
2023-05-04T01:23:50.588Z,97997.97
2023-05-04T01:26:24.816Z,98023.13
2023-05-04T01:29:00.624Z,98025.69
2023-05-04T01:31:27.296Z,98017.19
2023-05-04T01:33:54.235Z,98016.34
2023-05-04T01:36:21.230Z,98017.94
2023-05-04T01:38:48.910Z,98021.38
2023-05-04T01:41:15.432Z,98013.72
2023-05-04T01:43:42.504Z,98019.69
2023-05-04T01:46:09.058Z,98024.78
2023-05-04T01:48:35.661Z,98011.19
2023-05-04T01:51:02.223Z,98011.19
2023-05-04T01:53:28.706Z,98009.47
2023-05-04T01:55:55.285Z,98001.81
2023-05-04T01:58:21.811Z,98007.75
2023-05-04T02:00:48.336Z,98010.34
2023-05-04T02:03:14.943Z,98006.91
2023-05-04T02:05:41.663Z,98008.69
2023-05-04T02:08:08.227Z,98004.38
2023-05-04T02:10:34.932Z,98007.75
2023-05-04T02:13:01.513Z,98002.63
2023-05-04T02:15:28.180Z,98007.75
2023-05-04T02:17:55.278Z,98011.19
2023-05-04T02:20:21.818Z,98019.63
2023-05-04T02:22:48.361Z,98002.56
2023-05-04T02:25:14.951Z,98008.56
2023-05-04T02:27:41.466Z,98011.91
2023-05-04T02:30:09.221Z,98009.34
2023-05-04T02:32:36.472Z,98011.06
2023-05-04T02:35:03.145Z,98007.63
2023-05-04T02:37:29.692Z,98009.28
2023-05-04T02:39:56.235Z,98005.00
2023-05-04T02:42:22.960Z,98005.88
2023-05-04T02:44:49.515Z,98003.31
2023-05-04T02:47:15.995Z,98016.09
2023-05-04T02:49:42.562Z,98001.63
2023-05-04T02:52:09.133Z,98010.09
2023-05-04T02:54:35.715Z,97998.03
2023-05-04T02:57:02.272Z,98000.78
2023-05-04T02:59:28.775Z,97999.06
2023-05-04T03:01:55.621Z,98005.94
2023-05-04T03:04:22.185Z,98006.78
2023-05-04T03:06:48.722Z,98003.44
2023-05-04T03:09:15.240Z,98000.84
2023-05-04T03:11:41.796Z,98007.75
2023-05-04T03:14:08.333Z,97958.03
2023-05-04T03:16:35.030Z,98010.28
2023-05-04T03:19:01.685Z,98011.19
2023-05-04T03:21:28.319Z,98012.03
2023-05-04T03:23:54.851Z,98004.38
2023-05-04T03:26:21.553Z,98004.44
2023-05-04T03:28:48.121Z,98003.63
2023-05-04T03:31:14.744Z,98000.22
2023-05-04T03:33:41.549Z,97994.28
2023-05-04T03:36:09.237Z,97990.94
2023-05-04T03:38:35.755Z,97990.13
2023-05-04T03:41:02.535Z,97996.09
2023-05-04T03:43:29.038Z,97993.56
2023-05-04T03:45:55.629Z,97990.19
2023-05-04T03:48:22.139Z,97984.13
2023-05-04T03:50:48.658Z,97988.50
2023-05-04T03:53:15.262Z,97991.06
2023-05-04T03:55:41.877Z,97988.50
2023-05-04T03:58:08.400Z,97990.19
2023-05-04T04:00:35.151Z,97986.84
2023-05-04T04:03:02.152Z,97986.84
2023-05-04T04:05:28.955Z,97994.50
2023-05-04T04:07:55.481Z,98002.94
2023-05-04T04:10:22.713Z,97992.72
2023-05-04T04:12:49.882Z,97988.50
2023-05-04T04:15:16.522Z,97995.28
2023-05-04T04:17:43.105Z,97996.16
2023-05-04T04:20:10.209Z,97992.72
2023-05-04T04:22:36.789Z,97987.63
2023-05-04T04:25:03.436Z,97997.84
2023-05-04T04:27:29.974Z,97857.44
2023-05-04T04:29:56.955Z,98002.94
2023-05-04T04:32:23.502Z,97973.16
2023-05-04T04:34:50.030Z,98015.72
2023-05-04T04:37:16.612Z,98019.16
2023-05-04T04:39:43.190Z,98012.38
2023-05-04T04:42:09.759Z,98017.41
2023-05-04T04:44:36.504Z,98025.13
2023-05-04T04:47:03.150Z,98019.03
2023-05-04T04:49:29.806Z,98013.09
2023-05-04T04:51:56.836Z,98025.13
2023-05-04T04:54:23.440Z,97999.84
2023-05-04T04:56:49.965Z,98026.75
2023-05-04T04:59:17.350Z,98031.91
2023-05-04T05:01:43.923Z,98029.38
2023-05-04T05:04:10.492Z,98025.94
2023-05-04T05:06:37.074Z,98026.81
2023-05-04T05:09:03.682Z,98024.19
2023-05-04T05:11:30.217Z,98029.31
2023-05-04T05:13:56.777Z,98031.91
2023-05-04T05:16:23.782Z,98023.06
2023-05-04T05:18:50.345Z,98033.66
2023-05-04T05:21:16.915Z,98030.25
2023-05-04T05:23:43.454Z,98031.97
2023-05-04T05:26:09.983Z,98031.09
2023-05-04T05:28:37.202Z,98018.31
2023-05-04T05:31:03.922Z,98030.31
2023-05-04T05:33:30.448Z,98020.94
2023-05-04T05:35:56.970Z,98016.72
2023-05-04T05:38:23.605Z,98017.53
2023-05-04T05:40:50.165Z,98015.78
2023-05-04T05:43:16.674Z,98020.03
2023-05-04T05:45:43.227Z,98025.94
2023-05-04T05:48:09.837Z,98031.03
2023-05-04T05:50:36.333Z,98033.53
2023-05-04T05:53:02.866Z,98029.19
2023-05-04T05:55:29.419Z,98026.63
2023-05-04T05:57:55.990Z,98016.34
2023-05-04T06:00:22.529Z,98029.13
2023-05-04T06:02:49.249Z,98023.94
2023-05-04T06:05:15.879Z,98024.00
2023-05-04T06:07:42.537Z,97995.41
2023-05-04T06:10:09.560Z,98019.75
2023-05-04T06:12:36.335Z,98022.25
2023-05-04T06:15:02.949Z,98016.28
2023-05-04T06:17:29.548Z,98029.19
2023-05-04T06:19:56.394Z,98024.00
2023-05-04T06:22:22.966Z,98018.00
2023-05-04T06:24:49.765Z,98013.72
2023-05-04T06:27:16.478Z,98012.03
2023-05-04T06:29:43.013Z,98014.50
2023-05-04T06:32:12.798Z,98009.41
2023-05-04T06:34:39.447Z,98009.41
2023-05-04T06:37:06.004Z,98006.84
2023-05-04T06:39:32.942Z,98007.75
2023-05-04T06:41:59.701Z,98006.00
2023-05-04T06:44:26.301Z,98006.91
2023-05-04T06:46:53.864Z,98006.13
2023-05-04T06:49:20.479Z,98013.78
2023-05-04T06:51:46.970Z,98012.09
2023-05-04T06:54:13.547Z,98015.53
2023-05-04T06:56:40.444Z,98015.53
2023-05-04T06:59:08.161Z,98008.75
2023-05-04T07:01:34.768Z,98011.31
2023-05-04T07:04:01.567Z,98008.81
2023-05-04T07:06:29.461Z,98004.56
2023-05-04T07:08:56.414Z,98008.00
2023-05-04T07:11:23.502Z,97989.88
2023-05-04T07:13:50.418Z,98007.19
2023-05-04T07:16:16.995Z,98005.50
2023-05-04T07:18:43.559Z,98006.38
2023-05-04T07:21:27.033Z,98009.00
2023-05-04T07:23:55.463Z,98008.19
2023-05-04T07:26:22.726Z,97998.78
2023-05-04T07:28:49.257Z,97998.78
2023-05-04T07:31:15.986Z,98000.56
2023-05-04T07:33:42.648Z,97999.72
2023-05-04T07:36:09.291Z,97977.28
2023-05-04T07:38:36.265Z,97998.91
2023-05-04T07:41:02.974Z,98001.47
2023-05-04T07:43:29.517Z,97985.25
2023-05-04T07:45:56.052Z,97987.81
2023-05-04T07:48:24.614Z,97986.13
2023-05-04T07:50:52.761Z,97982.69
2023-05-04T07:53:20.761Z,97992.06
2023-05-04T07:55:47.930Z,97992.13
2023-05-04T07:58:15.566Z,97982.75
2023-05-04T08:00:42.236Z,97985.25
2023-05-04T08:03:08.758Z,97978.47
2023-05-04T08:05:35.357Z,97985.31
2023-05-04T08:08:01.905Z,97978.53
2023-05-04T08:10:29.169Z,97981.16
2023-05-04T08:12:55.730Z,97976.88
2023-05-04T08:15:22.305Z,97976.88
2023-05-04T08:17:48.953Z,97976.94
2023-05-04T08:20:16.712Z,97976.88
2023-05-04T08:22:43.296Z,97972.59
2023-05-04T08:25:10.051Z,97962.09
2023-05-04T08:27:36.636Z,97981.16
2023-05-04T08:30:03.453Z,97968.19
2023-05-04T08:32:31.843Z,97980.28
2023-05-04T08:34:59.706Z,97971.56
2023-05-04T08:37:26.454Z,97982.03
2023-05-04T08:39:53.126Z,97975.16
2023-05-04T08:42:32.767Z,97980.34
2023-05-04T08:44:59.446Z,97983.72
2023-05-04T08:47:26.572Z,97976.88
2023-05-04T08:49:54.187Z,97980.34
2023-05-04T08:52:22.565Z,97972.59
2023-05-04T08:54:49.076Z,97975.91
2023-05-04T08:57:15.742Z,97968.19
2023-05-04T08:59:42.701Z,97974.38
2023-05-04T09:02:09.555Z,97981.22
2023-05-04T09:04:36.249Z,97973.50
2023-05-04T09:07:03.412Z,97965.91
2023-05-04T09:09:31.692Z,97978.66
2023-05-04T09:11:59.060Z,97971.94
2023-05-04T09:14:32.421Z,97971.00
2023-05-04T09:16:59.082Z,97976.03
2023-05-04T09:19:33.185Z,97952.81
2023-05-04T09:22:01.087Z,97965.06
2023-05-04T09:24:28.480Z,97970.19
2023-05-04T09:26:54.988Z,97965.94
2023-05-04T09:29:23.920Z,97959.97
2023-05-04T09:31:51.131Z,97951.38
2023-05-04T09:34:20.259Z,97941.97
2023-05-04T09:36:58.664Z,97947.91
2023-05-04T09:39:25.436Z,97943.56
2023-05-04T09:41:51.973Z,97947.25
2023-05-04T09:44:19.602Z,97948.97
2023-05-04T09:46:58.873Z,97950.63
2023-05-04T09:49:35.234Z,97940.22
2023-05-04T09:52:02.858Z,97954.06
2023-05-04T09:54:32.452Z,97947.25
2023-05-04T09:57:04.995Z,97930.84
2023-05-04T09:59:34.241Z,97941.28
2023-05-04T10:02:10.584Z,97930.19
2023-05-04T10:04:45.100Z,97931.81
2023-05-04T10:07:11.613Z,97931.09
2023-05-04T10:09:38.162Z,97922.41
2023-05-04T10:12:05.402Z,97926.81
2023-05-04T10:14:35.063Z,97925.97
2023-05-04T10:17:13.900Z,97916.59
2023-05-04T10:19:58.613Z,97919.16
2023-05-04T10:22:37.123Z,97914.94
2023-05-04T10:25:07.374Z,97910.66
2023-05-04T10:27:54.481Z,97917.50
2023-05-04T10:30:21.217Z,97906.44
2023-05-04T10:32:55.207Z,97914.06
2023-05-04T10:35:21.923Z,97900.50
2023-05-04T10:37:54.484Z,97903.78
2023-05-04T10:40:41.968Z,97898.72
2023-05-04T10:43:08.647Z,97895.38
2023-05-04T10:45:38.750Z,97890.22
2023-05-04T10:48:06.122Z,97885.97
2023-05-04T10:50:43.627Z,97885.97
2023-05-04T10:53:10.277Z,97892.84
2023-05-04T10:55:41.637Z,97877.50
2023-05-04T10:58:08.489Z,97873.06
2023-05-04T11:00:38.263Z,97874.94
2023-05-04T11:03:05.660Z,97860.47
2023-05-04T11:05:45.594Z,97847.59
2023-05-04T11:08:19.451Z,97852.81
2023-05-04T11:10:47.291Z,97851.16
2023-05-04T11:13:14.134Z,97846.03
2023-05-04T11:15:47.544Z,97848.59
2023-05-04T11:18:14.477Z,97845.03
2023-05-04T11:20:42.468Z,97842.66
2023-05-04T11:23:10.352Z,97825.31
2023-05-04T11:25:37.637Z,97841.00
2023-05-04T11:28:04.455Z,97844.38
2023-05-04T11:30:33.249Z,97843.53
2023-05-04T11:33:00.572Z,97837.56
2023-05-04T11:35:27.302Z,97832.44
2023-05-04T11:37:54.418Z,97827.34
2023-05-04T11:40:24.620Z,97824.78
2023-05-04T11:42:52.417Z,97817.88
2023-05-04T11:45:19.658Z,97820.56
2023-05-04T11:47:46.530Z,97809.47
2023-05-04T11:50:14.122Z,97814.63
2023-05-04T11:52:41.542Z,97818.00
2023-05-04T11:55:12.678Z,97804.34
2023-05-04T11:57:39.765Z,97798.41
2023-05-04T12:00:09.748Z,97803.63
2023-05-04T12:02:36.466Z,97781.41
2023-05-04T12:05:03.406Z,97784.03
2023-05-04T12:07:30.073Z,97780.63
2023-05-04T12:09:56.878Z,97781.53
2023-05-04T12:12:23.590Z,97777.31
2023-05-04T12:14:53.616Z,97779.03
2023-05-04T12:17:20.620Z,97769.69
2023-05-04T12:19:54.729Z,97759.19
2023-05-04T12:22:32.878Z,97782.53
2023-05-04T12:24:59.840Z,97779.97
2023-05-04T12:27:26.666Z,97769.75
2023-05-04T12:29:53.258Z,97791.00
2023-05-04T12:32:19.819Z,97768.81
